createdAt,value
2022-11-10T00:00:53.808Z,7.80
2022-11-10T00:03:41.103Z,7.80
2022-11-10T00:06:28.101Z,7.80
2022-11-10T00:09:15.282Z,7.70
2022-11-10T00:12:02.509Z,7.70
2022-11-10T00:15:06.867Z,7.70
2022-11-10T00:17:56.847Z,7.70
2022-11-10T00:20:43.565Z,7.70
2022-11-10T00:23:30.477Z,7.70
2022-11-10T00:26:19.648Z,7.70
2022-11-10T00:29:12.445Z,7.80
2022-11-10T00:31:59.409Z,7.80
2022-11-10T00:34:47.141Z,7.70
2022-11-10T00:37:36.456Z,7.70
2022-11-10T00:40:23.249Z,7.60
2022-11-10T00:43:13.040Z,7.70
2022-11-10T00:45:59.918Z,7.60
2022-11-10T00:48:46.909Z,7.60
2022-11-10T00:51:34.777Z,7.70
2022-11-10T00:54:21.851Z,7.80
2022-11-10T00:57:08.553Z,7.80
2022-11-10T00:59:55.539Z,8.00
2022-11-10T01:02:44.505Z,8.00
2022-11-10T01:05:33.087Z,8.00
2022-11-10T01:08:21.269Z,8.10
2022-11-10T01:11:09.911Z,8.10
2022-11-10T01:14:02.736Z,8.10
2022-11-10T01:16:51.741Z,8.10
2022-11-10T01:19:38.549Z,8.10
2022-11-10T01:22:25.595Z,8.20
2022-11-10T01:25:14.085Z,8.20
2022-11-10T01:28:03.500Z,8.30
2022-11-10T01:30:50.153Z,8.30
2022-11-10T01:33:37.295Z,8.30
2022-11-10T01:36:23.868Z,8.30
2022-11-10T01:39:13.197Z,8.30
2022-11-10T01:42:04.655Z,8.40
2022-11-10T01:45:24.854Z,8.40
2022-11-10T01:48:18.383Z,8.40
2022-11-10T01:51:08.936Z,8.40
2022-11-10T01:54:00.406Z,8.30
2022-11-10T01:56:50.014Z,8.40
2022-11-10T01:59:43.782Z,8.40
2022-11-10T02:02:34.819Z,8.40
2022-11-10T02:05:24.110Z,8.40
2022-11-10T02:08:11.853Z,8.40
2022-11-10T02:10:58.457Z,8.40
2022-11-10T02:13:45.463Z,8.50
2022-11-10T02:16:34.528Z,8.50
2022-11-10T02:19:23.658Z,8.60
2022-11-10T02:22:11.594Z,8.70
2022-11-10T02:25:01.420Z,8.60
2022-11-10T02:27:48.453Z,8.60
2022-11-10T02:30:35.022Z,8.60
2022-11-10T02:33:22.478Z,8.60
2022-11-10T02:36:10.432Z,8.70
2022-11-10T02:38:58.438Z,8.70
2022-11-10T02:41:45.315Z,8.70
2022-11-10T02:44:33.994Z,8.60
2022-11-10T02:47:23.616Z,8.70
2022-11-10T02:50:10.614Z,8.60
2022-11-10T02:52:57.390Z,8.60
2022-11-10T02:55:45.586Z,8.60
2022-11-10T02:58:32.218Z,8.60
2022-11-10T03:01:21.300Z,8.70
2022-11-10T03:04:08.186Z,8.70
2022-11-10T03:06:55.131Z,8.60
2022-11-10T03:09:42.151Z,8.60
2022-11-10T03:12:30.445Z,8.70
2022-11-10T03:15:17.595Z,8.70
2022-11-10T03:18:06.357Z,8.70
2022-11-10T03:20:53.278Z,8.70
2022-11-10T03:23:40.320Z,8.70
2022-11-10T03:26:27.276Z,8.70
2022-11-10T03:29:15.161Z,8.80
2022-11-10T03:32:01.932Z,8.80
2022-11-10T03:34:48.385Z,8.80
2022-11-10T03:37:35.513Z,8.80
2022-11-10T03:40:22.468Z,9.00
2022-11-10T03:43:09.619Z,8.90
2022-11-10T03:46:02.652Z,8.90
2022-11-10T03:48:53.492Z,8.90
2022-11-10T03:51:40.726Z,8.90
2022-11-10T03:54:27.810Z,8.90
2022-11-10T03:57:15.204Z,8.90
2022-11-10T04:00:01.934Z,8.90
2022-11-10T04:02:49.800Z,8.80
2022-11-10T04:05:54.323Z,8.80
2022-11-10T04:09:09.907Z,8.80
2022-11-10T04:12:24.481Z,8.80
2022-11-10T04:15:30.205Z,8.90
2022-11-10T04:18:29.556Z,8.90
2022-11-10T04:21:16.621Z,8.90
2022-11-10T04:24:03.473Z,9.10
2022-11-10T04:26:50.824Z,9.10
2022-11-10T04:29:37.466Z,9.00
2022-11-10T04:32:24.457Z,9.00
2022-11-10T04:35:12.707Z,9.10
2022-11-10T04:37:59.093Z,9.30
2022-11-10T04:40:46.080Z,9.20
2022-11-10T04:43:33.575Z,9.20
2022-11-10T04:46:24.092Z,9.50
2022-11-10T04:49:12.543Z,9.20
2022-11-10T04:52:01.062Z,9.30
2022-11-10T04:54:47.821Z,9.30
2022-11-10T04:57:34.840Z,9.20
2022-11-10T05:00:21.489Z,9.30
2022-11-10T05:03:10.862Z,9.30
2022-11-10T05:05:57.526Z,9.30
2022-11-10T05:08:46.357Z,9.30
2022-11-10T05:11:32.712Z,9.40
2022-11-10T05:14:19.621Z,9.40
2022-11-10T05:17:06.115Z,9.50
2022-11-10T05:19:53.014Z,9.50
2022-11-10T05:22:39.337Z,9.50
2022-11-10T05:25:27.706Z,9.30
2022-11-10T05:28:16.454Z,9.20
2022-11-10T05:31:03.292Z,9.10
2022-11-10T05:33:49.653Z,9.10
2022-11-10T05:36:38.849Z,9.20
2022-11-10T05:39:25.663Z,9.20
2022-11-10T05:42:13.850Z,9.30
2022-11-10T05:45:00.414Z,9.30
2022-11-10T05:47:47.441Z,9.30
2022-11-10T05:50:34.165Z,9.40
2022-11-10T05:53:21.641Z,9.80
2022-11-10T05:56:09.121Z,9.60
2022-11-10T05:58:57.400Z,9.60
2022-11-10T06:01:44.007Z,9.60
2022-11-10T06:04:30.854Z,9.70
2022-11-10T06:07:17.333Z,9.60
2022-11-10T06:10:04.465Z,9.60
2022-11-10T06:12:51.431Z,9.60
2022-11-10T06:15:40.145Z,9.60
2022-11-10T06:18:26.797Z,9.70
2022-11-10T06:21:13.707Z,9.70
2022-11-10T06:24:00.662Z,9.60
2022-11-10T06:26:47.554Z,9.70
2022-11-10T06:29:34.979Z,9.80
2022-11-10T06:32:23.165Z,9.80
2022-11-10T06:35:09.975Z,9.70
2022-11-10T06:38:01.536Z,9.70
2022-11-10T06:40:48.202Z,9.70
2022-11-10T06:43:35.113Z,9.80
2022-11-10T06:46:21.633Z,9.70
2022-11-10T06:49:09.956Z,9.70
2022-11-10T06:51:57.141Z,9.80
2022-11-10T06:54:44.208Z,9.80
2022-11-10T06:57:31.231Z,9.90
2022-11-10T07:00:18.908Z,9.90
2022-11-10T07:03:07.756Z,9.90
2022-11-10T07:05:56.197Z,9.90
2022-11-10T07:08:42.816Z,9.90
2022-11-10T07:11:29.454Z,10.70
2022-11-10T07:14:16.002Z,10.80
2022-11-10T07:17:02.888Z,10.80
2022-11-10T07:19:49.190Z,10.90
2022-11-10T07:22:37.567Z,10.90
2022-11-10T07:25:24.313Z,10.90
2022-11-10T07:28:11.565Z,11.00
2022-11-10T07:30:58.690Z,10.90
2022-11-10T07:33:50.486Z,11.00
2022-11-10T07:36:40.721Z,11.30
2022-11-10T07:39:28.826Z,11.30
2022-11-10T07:42:15.525Z,11.30
2022-11-10T07:45:02.633Z,11.40
2022-11-10T07:47:50.352Z,11.50
2022-11-10T07:50:37.320Z,11.40
2022-11-10T07:53:25.138Z,11.30
2022-11-10T07:56:14.206Z,11.20
2022-11-10T07:59:01.003Z,11.10
2022-11-10T08:01:47.889Z,11.10
2022-11-10T08:04:34.860Z,11.20
2022-11-10T08:07:21.887Z,11.20
2022-11-10T08:10:09.647Z,11.40
2022-11-10T08:12:58.990Z,11.20
2022-11-10T08:15:45.778Z,11.20
2022-11-10T08:18:35.497Z,11.20
2022-11-10T08:21:22.738Z,11.10
2022-11-10T08:24:10.178Z,11.10
2022-11-10T08:26:57.959Z,11.20
2022-11-10T08:29:46.235Z,11.20
2022-11-10T08:32:32.583Z,11.30
2022-11-10T08:35:19.690Z,11.10
2022-11-10T08:38:10.225Z,11.20
2022-11-10T08:40:57.679Z,11.20
2022-11-10T08:43:44.817Z,11.10
2022-11-10T08:46:32.804Z,11.20
2022-11-10T08:49:19.652Z,11.30
2022-11-10T08:52:06.031Z,11.40
2022-11-10T08:54:52.515Z,11.40
2022-11-10T08:57:38.921Z,11.40
2022-11-10T09:00:25.728Z,11.40
2022-11-10T09:03:15.286Z,11.50
2022-11-10T09:06:02.329Z,11.60
2022-11-10T09:08:49.812Z,11.50
2022-11-10T09:11:36.107Z,11.50
2022-11-10T09:14:23.024Z,11.40
2022-11-10T09:17:09.725Z,11.50
2022-11-10T09:19:57.968Z,11.40
2022-11-10T09:22:44.825Z,11.50
2022-11-10T09:25:31.296Z,11.50
2022-11-10T09:28:18.534Z,11.60
2022-11-10T09:31:05.194Z,11.60
2022-11-10T09:33:51.667Z,11.50
2022-11-10T09:36:40.709Z,11.70
2022-11-10T09:39:27.455Z,11.50
2022-11-10T09:42:28.296Z,11.50
2022-11-10T09:45:23.691Z,11.40
2022-11-10T09:48:18.414Z,11.40
2022-11-10T09:51:07.975Z,11.50
2022-11-10T09:53:59.920Z,11.40
2022-11-10T09:56:46.848Z,11.10
2022-11-10T09:59:35.412Z,11.30
2022-11-10T10:02:28.429Z,11.70
2022-11-10T10:05:44.357Z,11.60
2022-11-10T10:08:45.175Z,11.60
2022-11-10T10:11:47.555Z,11.80
2022-11-10T10:14:52.669Z,11.70
2022-11-10T10:17:45.045Z,11.70
2022-11-10T10:20:45.536Z,11.60
2022-11-10T10:24:07.140Z,11.60
2022-11-10T10:26:49.060Z,11.80
2022-11-10T10:29:41.262Z,11.70
2022-11-10T10:32:28.162Z,11.80
2022-11-10T10:35:16.995Z,11.90
2022-11-10T10:38:05.588Z,11.90
2022-11-10T10:40:54.111Z,11.90
2022-11-10T10:43:47.349Z,12.00
2022-11-10T10:46:46.551Z,12.10
2022-11-10T10:49:34.598Z,12.50
2022-11-10T10:52:24.995Z,12.20
2022-11-10T10:55:14.432Z,12.20
2022-11-10T10:58:03.091Z,12.20
2022-11-10T11:00:53.141Z,12.60
2022-11-10T11:03:42.912Z,12.50
2022-11-10T11:06:31.894Z,12.60
2022-11-10T11:09:20.959Z,12.70
2022-11-10T11:12:11.685Z,12.60
2022-11-10T11:15:14.655Z,12.70
2022-11-10T11:18:05.487Z,12.80
2022-11-10T11:21:01.676Z,12.60
2022-11-10T11:24:04.927Z,12.80
2022-11-10T11:27:00.429Z,12.70
2022-11-10T11:29:59.493Z,12.50
2022-11-10T11:33:14.868Z,12.50
2022-11-10T11:36:10.466Z,12.50
2022-11-10T11:39:06.308Z,12.60
2022-11-10T11:42:06.488Z,13.10
2022-11-10T11:45:08.148Z,13.40
2022-11-10T11:48:09.078Z,13.10
2022-11-10T11:51:01.519Z,12.90
2022-11-10T11:54:03.697Z,13.00
2022-11-10T11:56:52.548Z,13.00
2022-11-10T12:00:00.760Z,13.10
2022-11-10T12:03:16.123Z,12.80
2022-11-10T12:06:20.962Z,13.00
2022-11-10T12:09:17.402Z,12.90
2022-11-10T12:12:18.911Z,13.10
2022-11-10T12:15:17.320Z,13.20
2022-11-10T12:18:14.857Z,13.00
2022-11-10T12:21:14.379Z,13.00
2022-11-10T12:24:20.461Z,13.10
2022-11-10T12:27:15.786Z,13.30
2022-11-10T12:30:05.869Z,13.40
2022-11-10T12:32:58.188Z,13.00
2022-11-10T12:35:46.856Z,13.00
2022-11-10T12:38:49.367Z,13.20
2022-11-10T12:41:46.662Z,13.50
2022-11-10T12:44:38.323Z,13.90
2022-11-10T12:47:29.601Z,13.80
2022-11-10T12:50:45.364Z,13.80
2022-11-10T12:53:36.609Z,13.00
2022-11-10T12:56:27.601Z,12.70
2022-11-10T12:59:30.860Z,12.50
2022-11-10T13:02:28.214Z,12.60
2022-11-10T13:05:38.235Z,12.60
2022-11-10T13:08:28.987Z,12.50
2022-11-10T13:11:36.475Z,12.70
2022-11-10T13:14:26.217Z,12.60
2022-11-10T13:17:52.459Z,12.50
2022-11-10T13:20:50.770Z,12.70
2022-11-10T13:24:11.130Z,12.70
2022-11-10T13:27:00.283Z,12.60
2022-11-10T13:29:58.441Z,12.60
2022-11-10T13:32:45.279Z,12.50
2022-11-10T13:35:55.533Z,12.50
2022-11-10T13:38:44.336Z,12.60
2022-11-10T13:41:35.579Z,12.50
2022-11-10T13:44:26.228Z,12.40
2022-11-10T13:47:47.497Z,12.30
2022-11-10T13:50:50.895Z,12.10
2022-11-10T13:53:51.907Z,11.90
2022-11-10T13:57:00.540Z,11.80
2022-11-10T13:59:53.038Z,11.90
2022-11-10T14:03:02.260Z,12.10
2022-11-10T14:06:10.166Z,12.10
2022-11-10T14:09:02.296Z,12.10
2022-11-10T14:11:51.889Z,12.00
2022-11-10T14:14:51.391Z,12.10
2022-11-10T14:17:45.600Z,12.10
2022-11-10T14:20:39.069Z,12.10
2022-11-10T14:23:31.366Z,12.10
2022-11-10T14:26:24.394Z,12.00
2022-11-10T14:29:32.184Z,11.70
2022-11-10T14:32:22.645Z,11.60
2022-11-10T14:35:20.896Z,11.40
2022-11-10T14:38:20.572Z,11.30
2022-11-10T14:41:15.111Z,11.10
2022-11-10T14:44:04.678Z,11.10
2022-11-10T14:46:52.066Z,11.00
2022-11-10T14:49:40.218Z,10.90
2022-11-10T14:52:26.782Z,10.90
2022-11-10T14:55:19.100Z,10.80
2022-11-10T14:58:12.431Z,10.80
2022-11-10T15:00:59.377Z,10.80
2022-11-10T15:03:45.994Z,10.80
2022-11-10T15:06:35.317Z,10.70
2022-11-10T15:09:27.930Z,10.60
2022-11-10T15:12:23.186Z,10.50
2022-11-10T15:15:20.780Z,10.50
2022-11-10T15:18:24.900Z,10.50
2022-11-10T15:21:13.925Z,10.40
2022-11-10T15:24:06.632Z,10.40
2022-11-10T15:26:53.545Z,10.50
2022-11-10T15:29:40.556Z,10.40
2022-11-10T15:32:35.205Z,10.40
2022-11-10T15:35:32.663Z,10.50
2022-11-10T15:38:30.232Z,10.40
2022-11-10T15:41:27.512Z,10.50
2022-11-10T15:44:16.553Z,10.50
2022-11-10T15:47:03.053Z,10.40
2022-11-10T15:49:49.659Z,10.40
2022-11-10T15:52:39.647Z,10.40
2022-11-10T15:55:26.663Z,10.40
2022-11-10T15:58:16.553Z,10.30
2022-11-10T16:01:03.759Z,10.50
2022-11-10T16:03:50.621Z,10.40
2022-11-10T16:06:37.547Z,10.50
2022-11-10T16:09:24.542Z,10.60
2022-11-10T16:12:16.239Z,10.50
2022-11-10T16:15:04.564Z,10.50
2022-11-10T16:17:51.594Z,10.70
2022-11-10T16:20:38.384Z,11.00
2022-11-10T16:23:26.272Z,11.00
2022-11-10T16:26:15.398Z,11.10
2022-11-10T16:29:02.575Z,11.30
2022-11-10T16:31:51.203Z,11.40
2022-11-10T16:34:37.907Z,11.30
2022-11-10T16:37:26.359Z,11.30
2022-11-10T16:40:15.673Z,11.40
2022-11-10T16:43:02.615Z,11.30
2022-11-10T16:45:51.243Z,11.10
2022-11-10T16:48:39.306Z,11.10
2022-11-10T16:51:30.463Z,11.10
2022-11-10T16:54:17.633Z,11.00
2022-11-10T16:57:08.028Z,10.90
2022-11-10T16:59:54.979Z,10.80
2022-11-10T17:02:42.061Z,10.90
2022-11-10T17:05:29.998Z,10.90
2022-11-10T17:08:23.619Z,10.70
2022-11-10T17:11:11.137Z,10.80
2022-11-10T17:13:57.907Z,10.80
2022-11-10T17:16:46.489Z,10.60
2022-11-10T17:19:33.518Z,10.50
2022-11-10T17:22:23.012Z,10.70
2022-11-10T17:25:16.650Z,10.40
2022-11-10T17:28:03.755Z,10.20
2022-11-10T17:30:52.554Z,10.10
2022-11-10T17:33:39.082Z,10.00
2022-11-10T17:36:25.855Z,10.10
2022-11-10T17:39:16.291Z,10.20
2022-11-10T17:42:03.339Z,10.20
2022-11-10T17:44:50.078Z,10.10
2022-11-10T17:47:36.599Z,9.90
2022-11-10T17:50:25.410Z,9.80
2022-11-10T17:53:19.696Z,9.90
2022-11-10T17:56:08.687Z,9.90
2022-11-10T17:58:58.545Z,9.80
2022-11-10T18:01:45.404Z,9.80
2022-11-10T18:04:32.310Z,9.80
2022-11-10T18:07:19.562Z,9.80
2022-11-10T18:10:07.509Z,9.80
2022-11-10T18:12:55.590Z,9.70
2022-11-10T18:15:43.968Z,9.70
2022-11-10T18:18:31.078Z,9.60
2022-11-10T18:21:17.844Z,9.60
2022-11-10T18:24:04.777Z,9.60
2022-11-10T18:26:51.392Z,9.70
2022-11-10T18:29:39.697Z,9.50
2022-11-10T18:32:26.755Z,9.50
2022-11-10T18:35:13.691Z,9.50
2022-11-10T18:38:00.570Z,9.50
2022-11-10T18:40:47.735Z,9.50
2022-11-10T18:43:38.292Z,9.40
2022-11-10T18:46:26.375Z,9.40
2022-11-10T18:49:13.548Z,9.30
2022-11-10T18:52:00.707Z,9.40
2022-11-10T18:54:47.715Z,9.40
2022-11-10T18:57:34.577Z,9.30
2022-11-10T19:00:21.416Z,9.30
2022-11-10T19:03:09.797Z,9.30
2022-11-10T19:05:58.893Z,9.30
2022-11-10T19:08:46.477Z,9.10
2022-11-10T19:11:34.533Z,9.10
2022-11-10T19:14:21.523Z,9.10
2022-11-10T19:17:08.342Z,9.00
2022-11-10T19:19:56.932Z,9.10
2022-11-10T19:22:43.981Z,9.00
2022-11-10T19:25:31.019Z,9.00
2022-11-10T19:28:18.020Z,9.10
2022-11-10T19:31:06.218Z,9.00
2022-11-10T19:33:55.029Z,9.00
2022-11-10T19:36:43.141Z,9.00
2022-11-10T19:39:30.232Z,9.00
2022-11-10T19:42:17.130Z,8.90
2022-11-10T19:45:03.567Z,8.80
2022-11-10T19:47:50.411Z,8.80
2022-11-10T19:50:37.325Z,8.80
2022-11-10T19:53:25.935Z,8.70
2022-11-10T19:56:15.767Z,8.70
2022-11-10T19:59:03.002Z,8.70
2022-11-10T20:01:49.639Z,8.70
2022-11-10T20:04:56.396Z,8.70
2022-11-10T20:08:01.191Z,8.60
2022-11-10T20:10:48.987Z,8.50
2022-11-10T20:13:36.010Z,8.50
2022-11-10T20:16:23.225Z,8.50
2022-11-10T20:19:09.853Z,8.60
2022-11-10T20:21:56.749Z,8.60
2022-11-10T20:24:49.912Z,8.50
2022-11-10T20:27:39.210Z,8.40
2022-11-10T20:30:26.337Z,8.40
2022-11-10T20:33:13.511Z,8.30
2022-11-10T20:36:05.862Z,8.20
2022-11-10T20:38:54.428Z,8.10
2022-11-10T20:41:41.385Z,8.20
2022-11-10T20:44:29.680Z,8.20
2022-11-10T20:47:16.512Z,8.20
2022-11-10T20:50:03.117Z,8.10
2022-11-10T20:52:50.331Z,8.20
2022-11-10T20:55:53.143Z,8.10
2022-11-10T20:58:40.632Z,8.10
2022-11-10T21:01:29.297Z,8.10
2022-11-10T21:04:16.121Z,8.10
2022-11-10T21:07:03.104Z,8.00
2022-11-10T21:09:49.879Z,8.00
2022-11-10T21:12:51.702Z,8.10
2022-11-10T21:15:40.247Z,7.90
2022-11-10T21:18:30.564Z,7.90
2022-11-10T21:21:21.827Z,7.80
2022-11-10T21:24:09.757Z,7.90
2022-11-10T21:26:57.935Z,7.80
2022-11-10T21:29:44.920Z,7.80
2022-11-10T21:32:32.044Z,7.80
2022-11-10T21:35:20.026Z,7.80
2022-11-10T21:38:07.090Z,7.80
2022-11-10T21:40:54.114Z,7.80
2022-11-10T21:43:41.410Z,7.80
2022-11-10T21:46:28.388Z,7.80
2022-11-10T21:49:14.862Z,7.70
2022-11-10T21:52:03.138Z,7.60
2022-11-10T21:54:50.145Z,7.50
2022-11-10T21:57:36.800Z,7.50
2022-11-10T22:00:23.732Z,7.40
2022-11-10T22:03:10.519Z,7.40
2022-11-10T22:05:57.211Z,7.30
2022-11-10T22:08:47.828Z,7.20
2022-11-10T22:11:51.869Z,7.20
2022-11-10T22:14:55.992Z,7.30
2022-11-10T22:18:00.040Z,7.30
2022-11-10T22:20:47.030Z,7.30
2022-11-10T22:23:50.765Z,7.20
2022-11-10T22:26:38.653Z,7.20
2022-11-10T22:29:31.255Z,7.10
2022-11-10T22:32:18.892Z,7.20
2022-11-10T22:35:06.414Z,7.10
2022-11-10T22:37:52.866Z,7.20
2022-11-10T22:40:57.156Z,7.10
2022-11-10T22:44:02.818Z,7.10
2022-11-10T22:46:52.209Z,7.10
2022-11-10T22:49:39.253Z,7.20
2022-11-10T22:52:26.306Z,7.20
2022-11-10T22:55:13.404Z,7.20
2022-11-10T22:58:00.457Z,7.20
2022-11-10T23:00:48.779Z,7.20
2022-11-10T23:03:35.932Z,7.30
2022-11-10T23:06:22.602Z,7.30
2022-11-10T23:09:09.234Z,7.30
2022-11-10T23:11:56.011Z,7.30
2022-11-10T23:14:42.517Z,7.20
2022-11-10T23:17:30.707Z,7.30
2022-11-10T23:20:17.435Z,7.20
2022-11-10T23:23:04.317Z,7.20
2022-11-10T23:25:57.494Z,7.20
2022-11-10T23:28:44.643Z,7.30
2022-11-10T23:31:31.388Z,7.30
2022-11-10T23:34:19.670Z,7.20
2022-11-10T23:37:06.716Z,7.20
2022-11-10T23:39:53.580Z,7.20
2022-11-10T23:42:39.956Z,7.30
2022-11-10T23:45:32.852Z,7.30
2022-11-10T23:48:32.922Z,7.30
2022-11-10T23:51:21.248Z,7.30
2022-11-10T23:54:08.113Z,7.40
2022-11-10T23:56:54.999Z,7.60
2022-11-10T23:59:42.074Z,7.70
